Schreiber, Canada
Current Conditions -  °F | °C
As of 6:00 AM on Sunday 21 Dec 2014 (Local Time) from CYGQ Reporting Station
Overcast Overcast  
Wind Chill: 20°   Ceiling: 1500
Heat Index: 27°   Visibility: 8mi
Dew Point: 25°   Wind: 6mph
Humidity: 93%   Direction: 120°ESE
Pressure: 30.03"   Gusts: NA
Location:  48.8°N, 87.27°W
Report Text: CYGQ 211100Z 12005KT 8SM SCT010 OVC015 M03/M04 A3003 RMK SC3SC5INTMT -SN SLP192
Loading
Personal Weather Stations






























Interactive Weather Map New forecast layout! Learn more

10-Day Weather Forecast

Advertisements
Track Severe Weather on mobile